Time;durP1;ratioP1;P1;durP2;ratioP2;P2;SDS_P1;SDS_P2;PMS_P1;PMS_P2;Temp;Humidity;BMP_temperature;BMP_pressure;BME280_temperature;BME280_humidity;BME280_pressure;Samples;Min_cycle;Max_cycle;Signal;HPM_P1;HPM_P2
2022/11/29 00:00:18;;;;;;;13.63;12.03;;;;;;;7.43;100.00;95350.72;5030946;28;20194;-80
2022/11/29 00:02:45;;;;;;;14.20;12.10;;;;;;;7.40;100.00;95342.53;5031829;28;20205;-79
2022/11/29 00:05:11;;;;;;;14.53;12.57;;;;;;;7.37;100.00;95345.44;5031627;28;20222;-80
2022/11/29 00:07:37;;;;;;;16.07;11.93;;;;;;;7.33;100.00;95339.03;5030853;28;20217;-80
2022/11/29 00:10:05;;;;;;;13.67;12.10;;;;;;;7.27;100.00;95333.63;5030729;28;20209;-79
2022/11/29 00:12:31;;;;;;;13.17;11.07;;;;;;;7.24;100.00;95345.94;5029858;28;20202;-80
2022/11/29 00:14:59;;;;;;;15.03;11.70;;;;;;;7.23;100.00;95344.34;5031549;28;20198;-81
2022/11/29 00:17:25;;;;;;;13.70;11.80;;;;;;;7.25;100.00;95337.28;5029183;28;20194;-80
2022/11/29 00:19:52;;;;;;;12.93;10.67;;;;;;;7.30;100.00;95349.63;5044770;28;20209;-81
2022/11/29 00:22:19;;;;;;;13.60;11.07;;;;;;;7.31;100.00;95341.78;5031188;28;20573;-79
2022/11/29 00:24:45;;;;;;;11.63;10.43;;;;;;;7.35;100.00;95344.78;5030503;28;20240;-81
2022/11/29 00:27:11;;;;;;;12.67;10.63;;;;;;;7.34;100.00;95338.06;5031101;28;20734;-81
2022/11/29 00:29:38;;;;;;;11.37;9.47;;;;;;;7.33;100.00;95331.34;5030500;28;20206;-81
2022/11/29 00:32:06;;;;;;;12.90;9.70;;;;;;;7.35;100.00;95330.22;5030323;28;20202;-80
2022/11/29 00:34:32;;;;;;;10.33;9.33;;;;;;;7.36;100.00;95331.03;5030500;28;20221;-80
2022/11/29 00:36:59;;;;;;;11.33;9.03;;;;;;;7.38;100.00;95332.47;5031288;28;20188;-80
2022/11/29 00:39:25;;;;;;;11.47;9.60;;;;;;;7.33;100.00;95328.78;5029884;28;20217;-79
2022/11/29 00:41:52;;;;;;;10.77;9.53;;;;;;;7.36;100.00;95326.69;5030727;28;20206;-81
2022/11/29 00:44:19;;;;;;;10.57;9.47;;;;;;;7.35;100.00;95322.53;5030337;28;20211;-81
2022/11/29 00:46:45;;;;;;;9.93;8.63;;;;;;;7.39;100.00;95333.25;5030779;28;20218;-81
2022/11/29 00:49:13;;;;;;;10.93;9.17;;;;;;;7.36;100.00;95325.91;5030131;28;20206;-80
2022/11/29 00:51:39;;;;;;;13.03;9.67;;;;;;;7.30;100.00;95324.81;5030648;28;20202;-80
2022/11/29 00:54:06;;;;;;;9.90;8.90;;;;;;;7.32;100.00;95332.31;5024561;28;20221;-78
2022/11/29 00:56:32;;;;;;;9.97;8.97;;;;;;;7.31;100.00;95326.41;5030393;28;20217;-80
2022/11/29 00:58:59;;;;;;;10.40;8.57;;;;;;;7.34;100.00;95325.25;5030547;28;20198;-80
2022/11/29 01:01:25;;;;;;;9.77;8.77;;;;;;;7.32;100.00;95330.53;5030276;28;20202;-80
2022/11/29 01:03:52;;;;;;;9.47;8.20;;;;;;;7.30;100.00;95329.94;5029112;28;20226;-80
2022/11/29 01:06:20;;;;;;;9.10;8.20;;;;;;;7.28;100.00;95334.41;5030453;28;20221;-81
2022/11/29 01:08:48;;;;;;;9.30;8.40;;;;;;;7.26;100.00;95336.31;5029935;28;20194;-79
2022/11/29 01:11:17;;;;;;;9.53;8.40;;;;;;;7.23;100.00;95328.97;5030074;28;20205;-79
2022/11/29 01:13:44;;;;;;;9.07;8.17;;;;;;;7.21;100.00;95324.00;5020987;28;20218;-80
2022/11/29 01:16:11;;;;;;;9.50;8.57;;;;;;;7.16;100.00;95326.25;5030261;28;20209;-79
2022/11/29 01:18:38;;;;;;;10.20;8.97;;;;;;;7.13;100.00;95329.13;5029438;28;20198;-79
2022/11/29 01:21:07;;;;;;;9.00;8.10;;;;;;;7.16;100.00;95333.94;5029917;28;20190;-79
2022/11/29 01:23:36;;;;;;;8.70;7.80;;;;;;;7.21;100.00;95336.81;5021084;28;20221;-81
2022/11/29 01:26:05;;;;;;;9.43;7.77;;;;;;;7.27;100.00;95330.25;5029842;28;20590;-81
2022/11/29 01:28:33;;;;;;;9.13;8.23;;;;;;;7.27;100.00;95333.63;5029367;28;20213;-81
2022/11/29 01:30:59;;;;;;;8.57;7.77;;;;;;;7.30;100.00;95329.94;5029536;28;20233;-81
2022/11/29 01:33:26;;;;;;;10.93;8.17;;;;;;;7.30;100.00;95331.69;5029291;28;20222;-81
2022/11/29 01:35:54;;;;;;;9.50;8.50;;;;;;;7.23;100.00;95322.09;5029031;28;20285;-81
2022/11/29 01:38:22;;;;;;;8.97;8.07;;;;;;;7.21;100.00;95326.56;5028818;28;20577;-80
2022/11/29 01:40:59;;;;;;;32.73;28.10;;;;;;;7.25;100.00;95327.03;5029140;28;20209;-80
2022/11/29 01:43:34;;;;;;;18.77;15.57;;;;;;;7.32;100.00;95322.06;5029210;28;20252;-78
2022/11/29 01:46:01;;;;;;;11.73;10.53;;;;;;;7.36;100.00;95334.38;5028247;28;20348;-79
2022/11/29 01:48:32;;;;;;;9.77;8.70;;;;;;;7.38;100.00;95327.34;5023493;28;20194;-79
2022/11/29 01:51:00;;;;;;;9.63;8.73;;;;;;;7.42;100.00;95327.81;5024055;28;20194;-81
2022/11/29 01:53:28;;;;;;;8.80;7.93;;;;;;;7.44;100.00;95318.22;5029017;28;20564;-81
2022/11/29 01:56:03;;;;;;;8.13;7.13;;;;;;;7.47;100.00;95323.81;5029298;28;20704;-81
2022/11/29 01:58:29;;;;;;;7.50;6.63;;;;;;;7.49;100.00;95323.66;5028968;28;20576;-81
2022/11/29 02:00:57;;;;;;;8.93;7.17;;;;;;;7.50;100.00;95322.69;5029384;28;20194;-81
2022/11/29 02:03:23;;;;;;;8.03;6.60;;;;;;;7.51;100.00;95319.94;5029320;28;20210;-81
2022/11/29 02:05:52;;;;;;;7.70;6.90;;;;;;;7.52;100.00;95318.19;5029139;28;20221;-81
2022/11/29 02:08:24;;;;;;;6.97;6.27;;;;;;;7.52;100.00;95321.53;5029121;28;20199;-79
2022/11/29 02:11:12;;;;;;;7.50;6.60;;;;;;;7.52;100.00;95318.19;5029509;28;20186;-80
2022/11/29 02:13:52;;;;;;;6.87;6.13;;;;;;;7.51;100.00;95325.06;5029001;28;20226;-81
2022/11/29 02:16:24;;;;;;;7.47;6.27;;;;;;;7.52;100.00;95321.53;5029411;28;20201;-81
2022/11/29 02:19:00;;;;;;;8.43;6.87;;;;;;;7.44;100.00;95324.13;5029013;28;20202;-81
2022/11/29 02:21:41;;;;;;;7.60;6.80;;;;;;;7.43;100.00;95311.50;5029047;28;20197;-79
2022/11/29 02:24:45;;;;;;;7.33;6.63;;;;;;;7.46;100.00;95313.72;5021332;28;21034;-81
2022/11/29 02:27:59;;;;;;;7.07;6.37;;;;;;;7.46;100.00;95319.66;5029130;28;20229;-81
2022/11/29 02:30:52;;;;;;;7.40;6.10;;;;;;;7.43;100.00;95319.19;5029085;28;20225;-81
2022/11/29 02:33:38;;;;;;;6.60;6.00;;;;;;;7.41;100.00;95318.53;5029031;28;20685;-81
2022/11/29 02:36:18;;;;;;;7.40;6.03;;;;;;;7.39;100.00;95321.25;5028943;28;20193;-80
2022/11/29 02:39:07;;;;;;;6.97;6.27;;;;;;;7.37;100.00;95317.25;5043952;28;20239;-81
2022/11/29 02:41:50;;;;;;;8.00;7.07;;;;;;;7.37;100.00;95317.25;5024787;28;20190;-81
2022/11/29 02:44:43;;;;;;;9.17;6.40;;;;;;;7.39;100.00;95321.25;5017907;28;20222;-81
2022/11/29 02:47:24;;;;;;;7.50;6.67;;;;;;;7.31;100.00;95323.06;5027946;28;20233;-81
2022/11/29 02:50:09;;;;;;;8.03;7.23;;;;;;;7.35;100.00;95319.19;5028294;28;20197;-80
2022/11/29 02:52:44;;;;;;;9.33;6.77;;;;;;;7.39;100.00;95325.56;5028958;28;20190;-81
2022/11/29 02:55:19;;;;;;;8.53;6.90;;;;;;;7.41;100.00;95326.22;5028495;28;20186;-79
2022/11/29 02:57:55;;;;;;;7.27;6.47;;;;;;;7.45;100.00;95322.38;5028642;28;20198;-80
2022/11/29 03:00:23;;;;;;;6.73;6.03;;;;;;;7.49;100.00;95324.44;5028605;28;20189;-80
2022/11/29 03:02:58;;;;;;;7.23;6.53;;;;;;;7.52;100.00;95324.09;5033960;28;20203;-80
2022/11/29 03:05:38;;;;;;;6.70;6.00;;;;;;;7.52;100.00;95329.22;5019894;28;20193;-79
2022/11/29 03:08:16;;;;;;;8.53;6.60;;;;;;;7.53;100.00;95337.72;5028057;28;20194;-81
2022/11/29 03:10:54;;;;;;;6.40;5.80;;;;;;;7.49;100.00;95332.13;5028188;28;20206;-81
2022/11/29 03:13:28;;;;;;;7.00;6.30;;;;;;;7.50;100.00;95338.06;5027636;28;20217;-81
2022/11/29 03:16:03;;;;;;;7.23;6.20;;;;;;;7.48;100.00;95337.41;5028109;28;20194;-81
2022/11/29 03:18:39;;;;;;;7.00;6.30;;;;;;;7.48;100.00;95334.84;5027936;28;20197;-81
2022/11/29 03:21:15;;;;;;;7.67;5.80;;;;;;;7.49;100.00;95339.03;5023617;28;20240;-81
2022/11/29 03:23:47;;;;;;;6.97;6.27;;;;;;;7.49;100.00;95339.81;5027942;28;20226;-81
2022/11/29 03:26:17;;;;;;;7.97;6.60;;;;;;;7.33;100.00;95342.38;5020613;28;20218;-81
2022/11/29 03:28:49;;;;;;;7.90;6.90;;;;;;;7.26;100.00;95347.38;5031936;28;20202;-80
2022/11/29 03:31:21;;;;;;;8.33;6.77;;;;;;;7.28;100.00;95347.22;5031867;28;20217;-80
2022/11/29 03:33:54;;;;;;;7.13;6.43;;;;;;;7.34;100.00;95351.66;5031915;28;20233;-82
2022/11/29 03:36:33;;;;;;;7.40;6.70;;;;;;;7.40;100.00;95342.53;5032085;28;20182;-81
2022/11/29 03:39:04;;;;;;;7.33;6.63;;;;;;;7.36;100.00;95336.94;5031965;28;20194;-81
2022/11/29 03:41:36;;;;;;;7.03;6.33;;;;;;;7.35;100.00;95348.16;5028652;28;20186;-81
2022/11/29 03:44:09;;;;;;;7.80;6.67;;;;;;;7.34;100.00;95354.22;5032253;28;20221;-79
2022/11/29 03:46:43;;;;;;;7.23;6.53;;;;;;;7.31;100.00;95351.22;5031834;28;20217;-80
2022/11/29 03:49:18;;;;;;;7.10;6.40;;;;;;;7.35;100.00;95343.03;5031590;28;20209;-79
2022/11/29 03:51:58;;;;;;;7.83;6.90;;;;;;;7.30;100.00;95352.97;5031584;28;20194;-79
2022/11/29 03:54:28;;;;;;;9.90;7.50;;;;;;;7.26;100.00;95351.69;5031604;28;20218;-79
2022/11/29 03:56:55;;;;;;;8.00;7.10;;;;;;;7.31;100.00;95357.13;5031273;28;20194;-79
2022/11/29 03:59:32;;;;;;;8.10;6.90;;;;;;;7.36;100.00;95342.06;5031246;28;20681;-80
2022/11/29 04:02:38;;;;;;;8.03;7.23;;;;;;;7.32;100.00;95347.66;5031594;28;20198;-79
2022/11/29 04:05:34;;;;;;;8.33;7.50;;;;;;;7.24;100.00;95348.50;5031310;28;20243;-80
2022/11/29 04:08:19;;;;;;;9.47;8.23;;;;;;;7.20;100.00;95348.00;5023177;28;20210;-81
2022/11/29 04:11:11;;;;;;;8.83;7.83;;;;;;;7.21;100.00;95341.94;5031365;28;20194;-80
2022/11/29 04:14:00;;;;;;;8.57;7.40;;;;;;;7.22;100.00;95346.09;5023059;28;20237;-81
2022/11/29 04:16:51;;;;;;;8.43;7.53;;;;;;;7.20;100.00;95342.09;5030485;28;20237;-81
2022/11/29 04:19:52;;;;;;;8.87;7.73;;;;;;;7.20;100.00;95349.78;5035521;28;20189;-79
2022/11/29 04:22:52;;;;;;;8.40;7.50;;;;;;;7.22;100.00;95346.09;5031798;28;20198;-80
2022/11/29 04:25:37;;;;;;;7.60;6.30;;;;;;;7.25;100.00;95350.09;5031141;28;20577;-81
2022/11/29 04:28:20;;;;;;;6.97;6.30;;;;;;;7.30;100.00;95339.38;5031145;28;20222;-81
2022/11/29 04:30:58;;;;;;;8.20;6.87;;;;;;;7.27;100.00;95338.72;5030797;28;20584;-81
2022/11/29 04:33:48;;;;;;;8.10;7.00;;;;;;;7.23;100.00;95347.69;5031173;28;20225;-81
2022/11/29 04:36:38;;;;;;;7.20;6.50;;;;;;;7.16;100.00;95344.16;5019526;28;20194;-81
2022/11/29 04:39:45;;;;;;;7.83;7.03;;;;;;;7.06;100.00;95340.97;5030064;28;20688;-81
2022/11/29 04:42:41;;;;;;;8.27;7.13;;;;;;;7.04;100.00;95342.91;5029175;28;20193;-80
2022/11/29 04:45:37;;;;;;;9.23;6.70;;;;;;;6.94;100.00;95345.59;5031785;28;20206;-81
2022/11/29 04:48:21;;;;;;;9.90;7.30;;;;;;;6.93;100.00;95349.13;5006973;28;20225;-79
2022/11/29 04:50:59;;;;;;;8.00;7.20;;;;;;;6.94;100.00;95349.94;5037021;28;20550;-81
2022/11/29 04:53:36;;;;;;;7.90;7.10;;;;;;;6.98;100.00;95345.28;5030803;28;20213;-81
2022/11/29 04:56:14;;;;;;;7.23;6.47;;;;;;;7.07;100.00;95350.25;5030117;28;20183;-81
2022/11/29 04:58:50;;;;;;;7.43;6.23;;;;;;;7.12;100.00;95350.56;5023237;28;20556;-82
2022/11/29 05:01:25;;;;;;;6.40;5.80;;;;;;;7.10;100.00;95355.06;5031717;28;20190;-82
2022/11/29 05:04:00;;;;;;;7.03;6.00;;;;;;;7.14;100.00;95353.75;5030725;28;20904;-82
2022/11/29 05:06:32;;;;;;;6.37;5.70;;;;;;;7.18;100.00;95357.59;5030765;28;20213;-82
2022/11/29 05:09:06;;;;;;;7.07;6.00;;;;;;;7.19;100.00;95358.41;5030697;28;20197;-78
2022/11/29 05:11:43;;;;;;;5.93;5.33;;;;;;;7.23;100.00;95357.13;5030579;28;20190;-79
2022/11/29 05:14:20;;;;;;;6.03;5.37;;;;;;;7.24;100.00;95356.16;5030894;28;20222;-79
2022/11/29 05:16:49;;;;;;;6.00;5.07;;;;;;;7.21;100.00;95359.06;5031255;28;20197;-81
2022/11/29 05:19:29;;;;;;;5.23;4.73;;;;;;;7.18;100.00;95351.69;5031085;28;20619;-81
2022/11/29 05:22:06;;;;;;;5.70;5.20;;;;;;;7.18;100.00;95367.03;5032847;28;20212;-81
2022/11/29 05:24:53;;;;;;;4.53;4.13;;;;;;;7.22;100.00;95358.09;5031253;28;20217;-81
2022/11/29 05:27:28;;;;;;;5.83;4.57;;;;;;;7.25;100.00;95371.38;5031323;28;20601;-80
2022/11/29 05:30:01;;;;;;;9.17;4.83;;;;;;;7.53;100.00;95371.00;5031835;28;20223;-83
2022/11/29 05:32:35;;;;;;;3.93;3.57;;;;;;;7.69;100.00;95376.13;5023875;28;20202;-81
2022/11/29 05:35:34;;;;;;;4.37;3.77;;;;;;;7.62;100.00;95363.16;5031306;28;20681;-81
2022/11/29 05:38:09;;;;;;;4.53;3.70;;;;;;;7.56;100.00;95370.69;4998538;28;20202;-81
2022/11/29 05:41:02;;;;;;;5.20;4.00;;;;;;;7.50;100.00;95369.59;5011613;28;20213;-80
2022/11/29 05:43:50;;;;;;;4.73;4.17;;;;;;;7.43;100.00;95375.53;5011082;28;20223;-80
2022/11/29 05:46:28;;;;;;;5.50;3.70;;;;;;;7.29;100.00;95376.97;5010752;28;20218;-81
2022/11/29 05:49:00;;;;;;;5.07;3.97;;;;;;;7.31;100.00;95380.19;5011261;28;20190;-81
2022/11/29 05:51:39;;;;;;;5.63;3.63;;;;;;;7.33;100.00;95380.00;5011449;28;20217;-81
2022/11/29 05:54:18;;;;;;;3.97;3.30;;;;;;;7.31;100.00;95381.94;5011042;28;20225;-81
2022/11/29 05:56:53;;;;;;;3.53;3.20;;;;;;;7.26;100.00;95383.22;5010679;28;20850;-80
2022/11/29 05:59:24;;;;;;;4.03;3.30;;;;;;;7.25;100.00;95379.06;5010772;28;20182;-80
2022/11/29 06:02:01;;;;;;;3.90;3.40;;;;;;;7.26;100.00;95382.41;5011084;28;20203;-80
2022/11/29 06:04:48;;;;;;;4.97;2.97;;;;;;;7.31;100.00;95390.44;5011454;28;20218;-81
2022/11/29 06:07:19;;;;;;;4.10;3.60;;;;;;;7.35;100.00;95380.63;5010673;28;20619;-80
2022/11/29 06:09:51;;;;;;;4.00;3.27;;;;;;;7.36;100.00;95384.81;5024787;28;20213;-80
2022/11/29 06:12:21;;;;;;;3.87;3.47;;;;;;;7.37;100.00;95379.53;5029399;28;20576;-79
2022/11/29 06:15:06;;;;;;;3.50;3.20;;;;;;;7.35;100.00;95385.75;5030172;28;20313;-80
2022/11/29 06:17:47;;;;;;;4.10;3.30;;;;;;;7.36;100.00;95395.03;5030608;28;20244;-81
2022/11/29 06:20:33;;;;;;;4.10;3.37;;;;;;;7.37;100.00;95391.53;5030399;28;20193;-81
2022/11/29 06:23:22;;;;;;;3.37;3.07;;;;;;;7.29;100.00;95394.91;5030230;28;20229;-80
2022/11/29 06:26:07;;;;;;;3.37;2.90;;;;;;;7.27;100.00;95389.16;5029743;28;20209;-81
2022/11/29 06:28:56;;;;;;;3.07;2.77;;;;;;;7.25;100.00;95391.84;5029587;28;20217;-79
2022/11/29 06:31:26;;;;;;;3.47;3.00;;;;;;;7.21;100.00;95392.34;5022922;28;20208;-80
2022/11/29 06:34:02;;;;;;;3.40;2.80;;;;;;;7.19;100.00;95395.06;5029861;28;20225;-80
2022/11/29 06:36:34;;;;;;;3.73;3.10;;;;;;;7.18;100.00;95393.44;5030315;28;20197;-81
2022/11/29 06:39:00;;;;;;;3.47;3.17;;;;;;;7.21;100.00;95402.56;5030185;28;20178;-80
2022/11/29 06:41:28;;;;;;;3.13;2.83;;;;;;;7.18;100.00;95398.56;5030178;28;20680;-80
2022/11/29 06:43:55;;;;;;;4.67;2.90;;;;;;;7.17;100.00;95404.66;5030113;28;20233;-81
2022/11/29 06:46:35;;;;;;;3.40;3.10;;;;;;;7.05;100.00;95408.50;5030203;28;20201;-80
2022/11/29 06:49:10;;;;;;;3.67;3.00;;;;;;;7.05;100.00;95405.94;5029842;28;20209;-81
2022/11/29 06:51:48;;;;;;;3.30;3.00;;;;;;;7.13;100.00;95400.81;5029960;28;20292;-81
2022/11/29 06:54:31;;;;;;;3.40;2.93;;;;;;;7.03;100.00;95410.41;5030101;28;20229;-81
2022/11/29 06:57:06;;;;;;;3.50;2.90;;;;;;;6.99;100.00;95403.19;5029776;28;20585;-80
2022/11/29 06:59:45;;;;;;;3.50;3.20;;;;;;;6.98;100.00;95410.06;5029564;28;20209;-81
2022/11/29 07:02:28;;;;;;;4.30;3.57;;;;;;;6.95;100.00;95410.38;5032456;28;20178;-81
2022/11/29 07:05:06;;;;;;;3.73;2.97;;;;;;;6.94;100.00;95416.47;5034013;28;20229;-81
2022/11/29 07:07:34;;;;;;;3.87;3.07;;;;;;;6.86;100.00;95413.91;5033685;28;20206;-80
2022/11/29 07:10:02;;;;;;;3.00;2.70;;;;;;;6.89;100.00;95411.03;5034313;28;20198;-81
2022/11/29 07:12:29;;;;;;;3.20;2.90;;;;;;;6.91;100.00;95414.25;5032554;28;20206;-81
2022/11/29 07:14:56;;;;;;;3.13;2.83;;;;;;;6.85;100.00;95410.56;5033470;28;20226;-80
2022/11/29 07:17:28;;;;;;;2.80;2.60;;;;;;;6.91;100.00;95414.25;5033752;28;20198;-81
2022/11/29 07:20:06;;;;;;;4.10;3.13;;;;;;;6.90;100.00;95426.25;5033063;28;20205;-81
2022/11/29 07:22:48;;;;;;;3.00;2.70;;;;;;;6.93;100.00;95428.47;5033559;28;20213;-80
2022/11/29 07:25:26;;;;;;;2.63;2.43;;;;;;;6.94;100.00;95419.81;5033647;28;20198;-80
2022/11/29 07:28:03;;;;;;;3.33;3.03;;;;;;;7.01;100.00;95429.44;5032940;28;20214;-81
2022/11/29 07:30:41;;;;;;;4.77;2.67;;;;;;;7.02;100.00;95433.59;5033405;28;20210;-80
2022/11/29 07:33:20;;;;;;;3.90;2.50;;;;;;;6.99;100.00;95427.03;5032741;28;20760;-80
2022/11/29 07:35:55;;;;;;;3.00;2.80;;;;;;;7.05;100.00;95431.53;5033567;28;20292;-81
2022/11/29 07:38:44;;;;;;;3.50;3.03;;;;;;;7.10;100.00;95423.38;5032850;28;20293;-80
2022/11/29 07:41:16;;;;;;;2.73;2.53;;;;;;;7.01;100.00;95432.00;5033230;28;20198;-80
2022/11/29 07:43:51;;;;;;;3.00;2.60;;;;;;;6.99;100.00;95423.69;5032946;28;20218;-81
2022/11/29 07:46:18;;;;;;;2.70;2.50;;;;;;;6.91;100.00;95427.84;5033204;28;20218;-80
2022/11/29 07:48:44;;;;;;;2.80;2.60;;;;;;;6.87;100.00;95428.31;5032307;28;20228;-80
2022/11/29 07:51:13;;;;;;;2.70;2.50;;;;;;;6.93;100.00;95438.69;5033322;28;20297;-81
2022/11/29 07:53:42;;;;;;;2.50;2.30;;;;;;;6.92;100.00;95432.00;5032272;28;20225;-80
2022/11/29 07:56:09;;;;;;;2.70;2.50;;;;;;;6.98;100.00;95440.00;5032861;28;20206;-81
2022/11/29 07:58:36;;;;;;;4.07;2.60;;;;;;;6.92;100.00;95437.13;5032780;28;20194;-79
2022/11/29 08:01:02;;;;;;;2.57;2.37;;;;;;;6.86;100.00;95426.72;5032670;28;20199;-81
2022/11/29 08:03:29;;;;;;;2.63;2.40;;;;;;;6.90;100.00;95433.13;5032885;28;20221;-80
2022/11/29 08:05:55;;;;;;;4.30;2.00;;;;;;;6.91;100.00;95429.59;5033347;28;20205;-80
2022/11/29 08:08:23;;;;;;;2.80;2.50;;;;;;;6.86;100.00;95436.94;5032517;28;20745;-79
2022/11/29 08:10:49;;;;;;;2.87;2.33;;;;;;;6.92;100.00;95436.31;5032216;28;20213;-81
2022/11/29 08:13:19;;;;;;;2.37;2.17;;;;;;;6.94;100.00;95436.94;5031142;28;20749;-81
2022/11/29 08:15:46;;;;;;;2.20;2.00;;;;;;;6.92;100.00;95438.88;5032257;28;20208;-80
2022/11/29 08:18:12;;;;;;;1.87;1.77;;;;;;;6.95;100.00;95441.09;5032100;28;20206;-81
2022/11/29 08:20:40;;;;;;;2.50;2.30;;;;;;;7.04;100.00;95447.84;5032466;28;20226;-80
2022/11/29 08:23:08;;;;;;;4.07;2.13;;;;;;;7.12;100.00;95449.63;5032148;28;20301;-80
2022/11/29 08:25:36;;;;;;;2.50;2.30;;;;;;;7.14;100.00;95447.69;5032780;28;20203;-81
2022/11/29 08:28:04;;;;;;;4.47;2.23;;;;;;;7.14;100.00;95452.81;5032133;28;20248;-80
2022/11/29 08:30:30;;;;;;;2.53;2.30;;;;;;;7.13;100.00;95452.00;5032336;28;20214;-81
2022/11/29 08:32:57;;;;;;;2.30;2.10;;;;;;;7.21;100.00;95448.66;5032811;28;20190;-83
2022/11/29 08:35:24;;;;;;;2.53;2.10;;;;;;;7.21;100.00;95443.53;5032557;28;20233;-83
2022/11/29 08:37:50;;;;;;;2.30;2.10;;;;;;;7.21;100.00;95453.78;5032215;28;20573;-81
2022/11/29 08:40:18;;;;;;;2.50;2.30;;;;;;;7.20;100.00;95450.44;5032263;28;20205;-80
2022/11/29 08:42:46;;;;;;;2.70;2.43;;;;;;;7.21;100.00;95449.47;5032331;28;20216;-80
2022/11/29 08:45:12;;;;;;;2.87;2.00;;;;;;;7.18;100.00;95454.09;5032213;28;20202;-79
2022/11/29 08:47:41;;;;;;;2.93;2.00;;;;;;;7.11;100.00;95453.94;5032058;28;20222;-81
2022/11/29 08:50:11;;;;;;;2.20;2.10;;;;;;;7.04;100.00;95449.59;5032264;28;20217;-80
2022/11/29 08:55:25;;;;;;;3.10;1.97;;;;;;;6.92;100.00;95455.03;5031655;28;20193;-79
2022/11/29 08:57:54;;;;;;;2.00;1.90;;;;;;;6.84;100.00;95447.34;5031077;28;20198;-80
2022/11/29 09:00:21;;;;;;;2.30;2.10;;;;;;;6.85;100.00;95459.16;5032105;28;20217;-80
2022/11/29 09:02:47;;;;;;;2.37;2.17;;;;;;;6.88;100.00;95461.41;5031060;28;20209;-81
2022/11/29 09:05:14;;;;;;;3.00;2.30;;;;;;;6.89;100.00;95462.22;5031683;28;20198;-80
2022/11/29 09:07:41;;;;;;;2.73;2.20;;;;;;;6.86;100.00;95462.53;5031416;28;20284;-79
2022/11/29 09:10:08;;;;;;;2.10;1.90;;;;;;;6.81;100.00;95464.75;5031320;28;20206;-80
2022/11/29 09:12:35;;;;;;;4.97;2.20;;;;;;;6.81;100.00;95464.75;5030539;28;20212;-80
2022/11/29 09:15:03;;;;;;;2.13;1.93;;;;;;;6.78;100.00;95462.50;5031292;28;20226;-81
2022/11/29 09:17:30;;;;;;;2.10;1.90;;;;;;;6.88;100.00;95465.75;5030808;28;20205;-78
2022/11/29 09:19:56;;;;;;;2.13;2.00;;;;;;;7.01;100.00;95466.06;5030983;28;20217;-81
2022/11/29 09:22:23;;;;;;;5.80;2.53;;;;;;;7.10;100.00;95469.47;5031543;28;20594;-81
2022/11/29 09:24:49;;;;;;;2.70;2.20;;;;;;;7.17;100.00;95470.41;5030130;28;20756;-81
2022/11/29 09:27:16;;;;;;;3.60;3.23;;;;;;;7.21;100.00;95472.50;5031039;28;20206;-80
2022/11/29 09:29:42;;;;;;;7.13;5.10;;;;;;;7.23;100.00;95472.34;5031232;28;20700;-81
2022/11/29 09:32:10;;;;;;;3.57;2.70;;;;;;;7.19;100.00;95479.53;5031223;28;20863;-81
2022/11/29 09:34:36;;;;;;;3.60;2.60;;;;;;;7.23;100.00;95480.03;5030908;28;20225;-81
2022/11/29 09:37:05;;;;;;;3.27;2.97;;;;;;;7.22;100.00;95478.44;5030821;28;20198;-81
2022/11/29 09:39:31;;;;;;;3.30;2.77;;;;;;;7.17;100.00;95478.09;5030500;28;20204;-80
2022/11/29 09:42:26;;;;;;;3.33;2.70;;;;;;;7.05;100.00;95477.59;5030274;28;20202;-81
2022/11/29 09:45:02;;;;;;;3.17;2.63;;;;;;;7.03;100.00;95476.97;5024322;28;20806;-82
2022/11/29 09:48:01;;;;;;;3.60;2.70;;;;;;;7.14;100.00;95479.22;5030206;28;20197;-80
2022/11/29 09:50:33;;;;;;;3.23;2.93;;;;;;;7.28;100.00;95480.38;5026305;28;20194;-82
2022/11/29 09:53:17;;;;;;;2.63;2.43;;;;;;;7.36;100.00;95482.91;5031387;28;20190;-82
2022/11/29 09:55:59;;;;;;;3.50;2.83;;;;;;;7.37;100.00;95481.16;5010626;28;20210;-81
2022/11/29 09:58:31;;;;;;;4.13;3.13;;;;;;;7.32;100.00;95489.31;5024585;28;20248;-80
2022/11/29 10:01:03;;;;;;;6.40;3.07;;;;;;;7.31;100.00;95479.25;5030458;28;20268;-81
2022/11/29 10:03:35;;;;;;;4.27;2.70;;;;;;;7.26;100.00;95485.66;5030842;28;20230;-82
2022/11/29 10:06:07;;;;;;;3.53;2.57;;;;;;;7.14;100.00;95486.88;5030396;28;20249;-80
2022/11/29 10:08:40;;;;;;;3.70;2.23;;;;;;;7.01;100.00;95486.56;5029823;28;20213;-81
2022/11/29 10:11:17;;;;;;;5.07;2.77;;;;;;;7.04;100.00;95483.69;5030247;28;20186;-79
2022/11/29 10:13:49;;;;;;;5.37;3.07;;;;;;;7.12;100.00;95481.13;5029120;28;20591;-81
2022/11/29 10:16:23;;;;;;;5.80;3.40;;;;;;;7.19;100.00;95482.09;5022153;28;20571;-80
2022/11/29 10:18:58;;;;;;;5.53;3.10;;;;;;;7.25;100.00;95483.25;5029902;28;20210;-79
2022/11/29 10:21:29;;;;;;;11.60;7.73;;;;;;;7.15;100.00;95475.69;5029913;28;20215;-81
2022/11/29 10:23:59;;;;;;;4.47;3.47;;;;;;;7.11;100.00;95481.31;5030232;28;20218;-80
2022/11/29 10:26:26;;;;;;;4.40;3.40;;;;;;;7.17;100.00;95481.47;5030088;28;20703;-80
2022/11/29 10:28:55;;;;;;;3.50;2.97;;;;;;;7.21;100.00;95485.31;5029646;28;20245;-81
2022/11/29 10:31:26;;;;;;;4.83;3.00;;;;;;;7.18;100.00;95475.38;5029208;28;20283;-81
2022/11/29 10:33:55;;;;;;;2.70;2.43;;;;;;;7.16;100.00;95479.06;5029909;28;20232;-80
2022/11/29 10:36:26;;;;;;;3.63;2.60;;;;;;;7.14;100.00;95474.09;5029498;28;20241;-80
2022/11/29 10:38:57;;;;;;;3.53;2.50;;;;;;;7.18;100.00;95475.38;5029736;28;20190;-81
2022/11/29 10:41:25;;;;;;;2.90;2.60;;;;;;;7.19;100.00;95469.31;5030111;28;20345;-79
2022/11/29 10:43:54;;;;;;;3.43;2.87;;;;;;;7.21;100.00;95472.50;5030080;28;20771;-81
2022/11/29 10:46:28;;;;;;;2.80;2.60;;;;;;;7.21;100.00;95466.59;5029564;28;20202;-80
2022/11/29 10:48:58;;;;;;;3.07;2.77;;;;;;;7.19;100.00;95476.19;5029578;28;20214;-81
2022/11/29 10:51:25;;;;;;;2.67;2.20;;;;;;;7.18;100.00;95472.81;5029015;28;20668;-79
2022/11/29 10:53:53;;;;;;;12.90;10.87;;;;;;;7.21;100.00;95464.81;5029531;28;20221;-82
2022/11/29 10:56:23;;;;;;;2.20;2.00;;;;;;;7.19;100.00;95468.50;5029401;28;20234;-81
2022/11/29 10:59:01;;;;;;;2.50;2.30;;;;;;;7.15;100.00;95469.78;5029686;28;20569;-80
2022/11/29 11:01:29;;;;;;;2.30;2.10;;;;;;;7.19;100.00;95476.97;5029898;28;20241;-80
2022/11/29 11:03:59;;;;;;;2.40;2.20;;;;;;;7.23;100.00;95477.47;5029641;28;20249;-81
2022/11/29 11:06:41;;;;;;;2.70;2.50;;;;;;;7.21;100.00;95472.50;5029687;28;20198;-81
2022/11/29 11:09:17;;;;;;;3.80;2.50;;;;;;;7.29;100.00;95474.28;5029507;28;20251;-79
2022/11/29 11:11:51;;;;;;;3.90;2.80;;;;;;;7.36;100.00;95469.31;5028715;28;20559;-80
2022/11/29 11:14:20;;;;;;;4.43;2.77;;;;;;;7.36;100.00;95474.44;5029731;28;20224;-79
2022/11/29 11:16:47;;;;;;;3.50;3.20;;;;;;;7.38;100.00;95480.19;5029167;28;20677;-81
2022/11/29 11:19:31;;;;;;;3.47;2.53;;;;;;;7.37;100.00;95474.28;5029690;28;20224;-81
2022/11/29 11:21:59;;;;;;;2.67;2.47;;;;;;;7.37;100.00;95478.59;5026882;28;20209;-81
2022/11/29 11:24:29;;;;;;;2.83;2.33;;;;;;;7.37;100.00;95476.84;5029337;28;20226;-81
2022/11/29 11:26:56;;;;;;;3.17;2.40;;;;;;;7.40;100.00;95475.72;5029255;28;20197;-79
2022/11/29 11:29:26;;;;;;;2.43;2.13;;;;;;;7.37;100.00;95474.28;5028999;28;20218;-79
2022/11/29 11:31:55;;;;;;;2.50;2.30;;;;;;;7.34;100.00;95482.28;5029297;28;20201;-80
2022/11/29 11:34:28;;;;;;;2.03;1.93;;;;;;;7.31;100.00;95474.13;5029467;28;20340;-80
2022/11/29 11:37:18;;;;;;;1.70;1.60;;;;;;;7.24;100.00;95479.06;5029149;28;20207;-81
2022/11/29 11:39:46;;;;;;;1.90;1.80;;;;;;;7.25;99.78;95480.69;5029370;28;20187;-81
2022/11/29 11:45:01;;;;;;;2.13;1.93;;;;;;;7.37;100.00;95476.84;5029220;28;20656;-81
2022/11/29 11:47:29;;;;;;;2.63;2.40;;;;;;;7.44;100.00;95479.56;5029099;28;20210;-80
2022/11/29 11:50:06;;;;;;;2.70;2.23;;;;;;;7.54;100.00;95488.69;5033177;28;20218;-82
2022/11/29 11:52:40;;;;;;;2.30;2.10;;;;;;;7.56;100.00;95483.41;5032878;28;20202;-80
2022/11/29 11:55:26;;;;;;;3.53;2.00;;;;;;;7.51;99.17;95478.75;5032576;28;20733;-82
2022/11/29 11:57:59;;;;;;;2.40;2.00;;;;;;;7.52;99.89;95480.34;5032643;28;20186;-80
2022/11/29 12:00:41;;;;;;;2.13;1.93;;;;;;;7.56;100.00;95480.84;5033138;28;20210;-80
2022/11/29 12:03:26;;;;;;;3.93;2.60;;;;;;;7.61;99.39;95488.88;5032780;28;20230;-79
2022/11/29 12:05:55;;;;;;;2.60;2.40;;;;;;;7.65;100.00;95479.91;5032559;28;20225;-82
2022/11/29 12:08:26;;;;;;;4.20;3.80;;;;;;;7.72;100.00;95487.72;5032457;28;20220;-81